sensor_id;sensor_type;location;lat;lon;timestamp;P1;durP1;ratioP1;P2;durP2;ratioP2
34982;SDS011;21187;50.976;13.720;2023-04-25T00:03:14;6.70;;;2.92;;
34982;SDS011;21187;50.976;13.720;2023-04-25T00:08:17;5.63;;;3.05;;
34982;SDS011;21187;50.976;13.720;2023-04-25T00:13:19;4.20;;;3.05;;
34982;SDS011;21187;50.976;13.720;2023-04-25T00:18:21;11.80;;;3.17;;
34982;SDS011;21187;50.976;13.720;2023-04-25T00:23:24;6.25;;;3.42;;
34982;SDS011;21187;50.976;13.720;2023-04-25T00:28:26;5.78;;;3.03;;
34982;SDS011;21187;50.976;13.720;2023-04-25T00:33:28;7.68;;;3.60;;
34982;SDS011;21187;50.976;13.720;2023-04-25T00:38:30;7.65;;;3.53;;
34982;SDS011;21187;50.976;13.720;2023-04-25T00:43:32;7.93;;;3.72;;
34982;SDS011;21187;50.976;13.720;2023-04-25T00:48:35;6.78;;;3.83;;
34982;SDS011;21187;50.976;13.720;2023-04-25T00:53:37;6.25;;;3.53;;
34982;SDS011;21187;50.976;13.720;2023-04-25T00:58:39;7.05;;;3.97;;
34982;SDS011;21187;50.976;13.720;2023-04-25T01:03:43;8.10;;;3.65;;
34982;SDS011;21187;50.976;13.720;2023-04-25T01:08:48;6.88;;;3.85;;
34982;SDS011;21187;50.976;13.720;2023-04-25T01:13:50;8.30;;;3.90;;
34982;SDS011;21187;50.976;13.720;2023-04-25T01:18:53;6.32;;;3.92;;
34982;SDS011;21187;50.976;13.720;2023-04-25T01:23:56;8.50;;;4.30;;
34982;SDS011;21187;50.976;13.720;2023-04-25T01:28:58;10.57;;;4.95;;
34982;SDS011;21187;50.976;13.720;2023-04-25T01:34:01;8.65;;;4.07;;
34982;SDS011;21187;50.976;13.720;2023-04-25T01:39:03;9.25;;;4.13;;
34982;SDS011;21187;50.976;13.720;2023-04-25T01:44:05;10.82;;;3.60;;
34982;SDS011;21187;50.976;13.720;2023-04-25T01:49:08;10.02;;;4.57;;
34982;SDS011;21187;50.976;13.720;2023-04-25T01:54:10;7.80;;;3.70;;
34982;SDS011;21187;50.976;13.720;2023-04-25T01:59:12;9.25;;;4.40;;
34982;SDS011;21187;50.976;13.720;2023-04-25T02:04:39;11.02;;;4.60;;
34982;SDS011;21187;50.976;13.720;2023-04-25T02:09:42;13.40;;;4.35;;
34982;SDS011;21187;50.976;13.720;2023-04-25T02:14:46;15.57;;;5.05;;
34982;SDS011;21187;50.976;13.720;2023-04-25T02:19:59;9.20;;;4.75;;
34982;SDS011;21187;50.976;13.720;2023-04-25T02:25:01;10.38;;;4.70;;
34982;SDS011;21187;50.976;13.720;2023-04-25T02:30:04;14.10;;;5.20;;
34982;SDS011;21187;50.976;13.720;2023-04-25T02:35:08;9.18;;;4.50;;
34982;SDS011;21187;50.976;13.720;2023-04-25T02:40:10;9.85;;;4.97;;
34982;SDS011;21187;50.976;13.720;2023-04-25T02:45:12;12.02;;;5.28;;
34982;SDS011;21187;50.976;13.720;2023-04-25T02:50:14;9.43;;;5.60;;
34982;SDS011;21187;50.976;13.720;2023-04-25T02:55:16;10.77;;;5.05;;
34982;SDS011;21187;50.976;13.720;2023-04-25T03:00:19;11.10;;;4.78;;
34982;SDS011;21187;50.976;13.720;2023-04-25T03:05:21;11.00;;;4.80;;
34982;SDS011;21187;50.976;13.720;2023-04-25T03:10:23;14.20;;;5.15;;
34982;SDS011;21187;50.976;13.720;2023-04-25T03:15:25;10.00;;;4.55;;
34982;SDS011;21187;50.976;13.720;2023-04-25T03:20:28;9.40;;;4.65;;
34982;SDS011;21187;50.976;13.720;2023-04-25T03:25:30;12.07;;;5.22;;
34982;SDS011;21187;50.976;13.720;2023-04-25T03:30:32;9.43;;;5.28;;
34982;SDS011;21187;50.976;13.720;2023-04-25T03:35:35;13.68;;;5.03;;
34982;SDS011;21187;50.976;13.720;2023-04-25T03:40:37;14.65;;;4.95;;
34982;SDS011;21187;50.976;13.720;2023-04-25T03:45:49;9.02;;;4.93;;
34982;SDS011;21187;50.976;13.720;2023-04-25T03:50:55;11.15;;;5.22;;
34982;SDS011;21187;50.976;13.720;2023-04-25T03:55:57;10.77;;;5.43;;
34982;SDS011;21187;50.976;13.720;2023-04-25T04:00:59;13.18;;;5.43;;
34982;SDS011;21187;50.976;13.720;2023-04-25T04:06:05;13.05;;;5.65;;
34982;SDS011;21187;50.976;13.720;2023-04-25T04:11:14;12.37;;;5.67;;
34982;SDS011;21187;50.976;13.720;2023-04-25T04:16:16;10.40;;;4.88;;
34982;SDS011;21187;50.976;13.720;2023-04-25T04:21:18;16.40;;;5.13;;
34982;SDS011;21187;50.976;13.720;2023-04-25T04:26:21;12.02;;;5.43;;
34982;SDS011;21187;50.976;13.720;2023-04-25T04:36:34;10.20;;;5.07;;
34982;SDS011;21187;50.976;13.720;2023-04-25T04:41:36;9.90;;;5.47;;
34982;SDS011;21187;50.976;13.720;2023-04-25T04:47:04;10.63;;;4.90;;
34982;SDS011;21187;50.976;13.720;2023-04-25T04:52:26;14.77;;;4.68;;
34982;SDS011;21187;50.976;13.720;2023-04-25T04:57:54;9.77;;;5.05;;
34982;SDS011;21187;50.976;13.720;2023-04-25T05:03:25;9.57;;;5.05;;
34982;SDS011;21187;50.976;13.720;2023-04-25T05:08:58;8.85;;;4.60;;
34982;SDS011;21187;50.976;13.720;2023-04-25T05:14:18;10.43;;;4.40;;
34982;SDS011;21187;50.976;13.720;2023-04-25T05:19:39;11.93;;;4.63;;
34982;SDS011;21187;50.976;13.720;2023-04-25T05:25:06;10.32;;;4.88;;
34982;SDS011;21187;50.976;13.720;2023-04-25T05:30:35;12.05;;;4.28;;
34982;SDS011;21187;50.976;13.720;2023-04-25T05:35:44;11.47;;;3.93;;
34982;SDS011;21187;50.976;13.720;2023-04-25T05:40:47;10.63;;;4.32;;
34982;SDS011;21187;50.976;13.720;2023-04-25T05:46:06;9.40;;;4.28;;
34982;SDS011;21187;50.976;13.720;2023-04-25T05:51:23;7.90;;;4.38;;
34982;SDS011;21187;50.976;13.720;2023-04-25T05:56:43;9.07;;;4.30;;
34982;SDS011;21187;50.976;13.720;2023-04-25T06:01:45;12.18;;;3.72;;
34982;SDS011;21187;50.976;13.720;2023-04-25T06:06:48;11.68;;;4.00;;
34982;SDS011;21187;50.976;13.720;2023-04-25T06:11:50;8.10;;;4.18;;
34982;SDS011;21187;50.976;13.720;2023-04-25T06:16:52;13.48;;;4.00;;
34982;SDS011;21187;50.976;13.720;2023-04-25T06:21:54;16.17;;;4.63;;
34982;SDS011;21187;50.976;13.720;2023-04-25T06:26:56;15.52;;;4.70;;
34982;SDS011;21187;50.976;13.720;2023-04-25T06:31:58;12.00;;;4.55;;
34982;SDS011;21187;50.976;13.720;2023-04-25T06:37:01;10.63;;;4.38;;
34982;SDS011;21187;50.976;13.720;2023-04-25T06:42:03;11.90;;;4.40;;
34982;SDS011;21187;50.976;13.720;2023-04-25T06:47:15;14.77;;;5.05;;
34982;SDS011;21187;50.976;13.720;2023-04-25T06:52:17;14.10;;;4.47;;
34982;SDS011;21187;50.976;13.720;2023-04-25T06:57:20;15.10;;;5.03;;
34982;SDS011;21187;50.976;13.720;2023-04-25T07:02:22;11.40;;;5.10;;
34982;SDS011;21187;50.976;13.720;2023-04-25T07:07:26;10.27;;;5.40;;
34982;SDS011;21187;50.976;13.720;2023-04-25T07:12:31;10.63;;;4.85;;
34982;SDS011;21187;50.976;13.720;2023-04-25T07:17:33;18.52;;;5.53;;
34982;SDS011;21187;50.976;13.720;2023-04-25T07:22:35;13.95;;;5.47;;
34982;SDS011;21187;50.976;13.720;2023-04-25T07:27:38;12.50;;;5.53;;
34982;SDS011;21187;50.976;13.720;2023-04-25T07:32:46;13.70;;;5.25;;
34982;SDS011;21187;50.976;13.720;2023-04-25T07:38:07;9.50;;;4.45;;
34982;SDS011;21187;50.976;13.720;2023-04-25T07:43:09;11.38;;;3.75;;
34982;SDS011;21187;50.976;13.720;2023-04-25T07:48:22;6.90;;;3.33;;
34982;SDS011;21187;50.976;13.720;2023-04-25T07:53:26;5.13;;;2.38;;
34982;SDS011;21187;50.976;13.720;2023-04-25T07:58:33;6.55;;;2.13;;
34982;SDS011;21187;50.976;13.720;2023-04-25T08:03:38;5.55;;;2.53;;
34982;SDS011;21187;50.976;13.720;2023-04-25T08:08:47;5.83;;;2.50;;
34982;SDS011;21187;50.976;13.720;2023-04-25T08:13:52;7.38;;;2.78;;
34982;SDS011;21187;50.976;13.720;2023-04-25T08:18:55;8.95;;;2.30;;
34982;SDS011;21187;50.976;13.720;2023-04-25T08:23:58;9.68;;;2.50;;
34982;SDS011;21187;50.976;13.720;2023-04-25T08:29:04;7.75;;;2.42;;
34982;SDS011;21187;50.976;13.720;2023-04-25T08:34:09;6.13;;;2.67;;
34982;SDS011;21187;50.976;13.720;2023-04-25T08:39:16;4.40;;;2.20;;
34982;SDS011;21187;50.976;13.720;2023-04-25T08:44:35;7.82;;;2.42;;
34982;SDS011;21187;50.976;13.720;2023-04-25T08:49:38;10.13;;;2.30;;
34982;SDS011;21187;50.976;13.720;2023-04-25T08:54:46;7.78;;;2.90;;
34982;SDS011;21187;50.976;13.720;2023-04-25T08:59:51;5.80;;;2.58;;
34982;SDS011;21187;50.976;13.720;2023-04-25T09:04:56;5.03;;;2.15;;
34982;SDS011;21187;50.976;13.720;2023-04-25T09:09:58;8.18;;;3.45;;
34982;SDS011;21187;50.976;13.720;2023-04-25T09:15:09;4.35;;;3.00;;
34982;SDS011;21187;50.976;13.720;2023-04-25T09:20:31;8.90;;;3.28;;
34982;SDS011;21187;50.976;13.720;2023-04-25T09:25:38;9.73;;;3.08;;
34982;SDS011;21187;50.976;13.720;2023-04-25T09:30:43;10.77;;;3.75;;
34982;SDS011;21187;50.976;13.720;2023-04-25T09:36:08;12.25;;;3.80;;
34982;SDS011;21187;50.976;13.720;2023-04-25T09:41:30;7.70;;;3.15;;
34982;SDS011;21187;50.976;13.720;2023-04-25T09:46:35;6.60;;;3.58;;
34982;SDS011;21187;50.976;13.720;2023-04-25T09:51:58;10.95;;;3.90;;
34982;SDS011;21187;50.976;13.720;2023-04-25T09:57:16;6.97;;;2.50;;
34982;SDS011;21187;50.976;13.720;2023-04-25T10:02:27;9.32;;;2.83;;
34982;SDS011;21187;50.976;13.720;2023-04-25T10:07:35;11.82;;;3.42;;
34982;SDS011;21187;50.976;13.720;2023-04-25T10:12:44;10.73;;;4.28;;
34982;SDS011;21187;50.976;13.720;2023-04-25T10:17:48;8.25;;;4.28;;
34982;SDS011;21187;50.976;13.720;2023-04-25T10:22:51;11.23;;;4.75;;
34982;SDS011;21187;50.976;13.720;2023-04-25T10:27:59;12.98;;;4.90;;
34982;SDS011;21187;50.976;13.720;2023-04-25T10:33:03;9.68;;;4.32;;
34982;SDS011;21187;50.976;13.720;2023-04-25T10:38:18;10.18;;;5.00;;
34982;SDS011;21187;50.976;13.720;2023-04-25T10:43:34;9.43;;;5.13;;
34982;SDS011;21187;50.976;13.720;2023-04-25T10:48:43;12.52;;;5.82;;
34982;SDS011;21187;50.976;13.720;2023-04-25T10:59:04;9.43;;;5.13;;
34982;SDS011;21187;50.976;13.720;2023-04-25T11:09:27;12.68;;;5.55;;
34982;SDS011;21187;50.976;13.720;2023-04-25T11:14:29;9.90;;;5.82;;
34982;SDS011;21187;50.976;13.720;2023-04-25T11:19:31;12.85;;;5.95;;
34982;SDS011;21187;50.976;13.720;2023-04-25T11:24:34;16.30;;;6.68;;
34982;SDS011;21187;50.976;13.720;2023-04-25T11:29:37;11.50;;;5.97;;
34982;SDS011;21187;50.976;13.720;2023-04-25T11:34:39;16.42;;;6.30;;
34982;SDS011;21187;50.976;13.720;2023-04-25T11:39:45;12.73;;;4.03;;
34982;SDS011;21187;50.976;13.720;2023-04-25T11:44:50;12.98;;;2.65;;
34982;SDS011;21187;50.976;13.720;2023-04-25T11:49:53;8.50;;;3.05;;
34982;SDS011;21187;50.976;13.720;2023-04-25T11:54:56;8.07;;;3.10;;
34982;SDS011;21187;50.976;13.720;2023-04-25T12:00:32;11.55;;;3.50;;
34982;SDS011;21187;50.976;13.720;2023-04-25T12:05:28;10.55;;;4.10;;
34982;SDS011;21187;50.976;13.720;2023-04-25T12:10:36;12.48;;;3.08;;
34982;SDS011;21187;50.976;13.720;2023-04-25T12:15:40;7.53;;;2.72;;
34982;SDS011;21187;50.976;13.720;2023-04-25T12:20:42;12.77;;;3.17;;
34982;SDS011;21187;50.976;13.720;2023-04-25T12:25:44;12.52;;;3.42;;
34982;SDS011;21187;50.976;13.720;2023-04-25T12:31:06;6.35;;;2.42;;
34982;SDS011;21187;50.976;13.720;2023-04-25T12:36:09;8.38;;;2.63;;
34982;SDS011;21187;50.976;13.720;2023-04-25T12:41:13;14.70;;;3.13;;
34982;SDS011;21187;50.976;13.720;2023-04-25T12:46:14;12.27;;;2.30;;
34982;SDS011;21187;50.976;13.720;2023-04-25T12:51:16;10.30;;;2.97;;
34982;SDS011;21187;50.976;13.720;2023-04-25T12:56:18;11.02;;;2.60;;
34982;SDS011;21187;50.976;13.720;2023-04-25T13:01:25;9.75;;;2.97;;
34982;SDS011;21187;50.976;13.720;2023-04-25T13:06:27;9.23;;;3.58;;
34982;SDS011;21187;50.976;13.720;2023-04-25T13:11:31;12.50;;;3.33;;
34982;SDS011;21187;50.976;13.720;2023-04-25T13:16:33;16.23;;;3.92;;
34982;SDS011;21187;50.976;13.720;2023-04-25T13:21:35;13.02;;;4.25;;
34982;SDS011;21187;50.976;13.720;2023-04-25T13:26:37;14.55;;;3.90;;
34982;SDS011;21187;50.976;13.720;2023-04-25T13:31:39;15.13;;;4.18;;
34982;SDS011;21187;50.976;13.720;2023-04-25T13:36:41;17.70;;;3.90;;
34982;SDS011;21187;50.976;13.720;2023-04-25T13:41:42;13.32;;;3.70;;
34982;SDS011;21187;50.976;13.720;2023-04-25T13:46:44;11.25;;;3.47;;
34982;SDS011;21187;50.976;13.720;2023-04-25T13:51:48;13.93;;;3.97;;
34982;SDS011;21187;50.976;13.720;2023-04-25T13:56:50;10.70;;;3.83;;
34982;SDS011;21187;50.976;13.720;2023-04-25T14:01:52;20.42;;;4.53;;
34982;SDS011;21187;50.976;13.720;2023-04-25T14:06:54;14.30;;;4.32;;
34982;SDS011;21187;50.976;13.720;2023-04-25T14:11:56;11.85;;;3.13;;
34982;SDS011;21187;50.976;13.720;2023-04-25T14:16:58;8.32;;;3.00;;
34982;SDS011;21187;50.976;13.720;2023-04-25T14:22:00;9.85;;;3.47;;
34982;SDS011;21187;50.976;13.720;2023-04-25T14:27:02;13.77;;;3.40;;
34982;SDS011;21187;50.976;13.720;2023-04-25T14:32:04;20.23;;;4.05;;
34982;SDS011;21187;50.976;13.720;2023-04-25T14:37:06;12.13;;;3.63;;
34982;SDS011;21187;50.976;13.720;2023-04-25T14:42:08;11.68;;;3.60;;
34982;SDS011;21187;50.976;13.720;2023-04-25T14:47:10;14.48;;;3.80;;
34982;SDS011;21187;50.976;13.720;2023-04-25T14:52:12;25.10;;;5.30;;
34982;SDS011;21187;50.976;13.720;2023-04-25T14:57:14;18.98;;;4.78;;
34982;SDS011;21187;50.976;13.720;2023-04-25T15:02:16;17.08;;;3.95;;
34982;SDS011;21187;50.976;13.720;2023-04-25T15:07:19;9.15;;;3.30;;
34982;SDS011;21187;50.976;13.720;2023-04-25T15:12:21;15.10;;;4.28;;
34982;SDS011;21187;50.976;13.720;2023-04-25T15:17:22;21.27;;;4.45;;
34982;SDS011;21187;50.976;13.720;2023-04-25T15:22:24;12.98;;;3.90;;
34982;SDS011;21187;50.976;13.720;2023-04-25T15:27:26;13.88;;;3.25;;
34982;SDS011;21187;50.976;13.720;2023-04-25T15:32:28;11.98;;;3.50;;
34982;SDS011;21187;50.976;13.720;2023-04-25T15:37:30;10.75;;;2.60;;
34982;SDS011;21187;50.976;13.720;2023-04-25T15:42:32;13.15;;;2.72;;
34982;SDS011;21187;50.976;13.720;2023-04-25T15:47:34;13.35;;;2.50;;
34982;SDS011;21187;50.976;13.720;2023-04-25T15:52:37;9.75;;;2.35;;
34982;SDS011;21187;50.976;13.720;2023-04-25T15:57:39;12.18;;;2.20;;
34982;SDS011;21187;50.976;13.720;2023-04-25T16:02:44;9.57;;;2.30;;
34982;SDS011;21187;50.976;13.720;2023-04-25T16:07:47;12.38;;;2.42;;
34982;SDS011;21187;50.976;13.720;2023-04-25T16:12:49;12.77;;;2.60;;
34982;SDS011;21187;50.976;13.720;2023-04-25T16:17:51;7.60;;;2.58;;
34982;SDS011;21187;50.976;13.720;2023-04-25T16:22:53;12.45;;;2.13;;
34982;SDS011;21187;50.976;13.720;2023-04-25T16:27:55;9.82;;;2.45;;
34982;SDS011;21187;50.976;13.720;2023-04-25T16:32:57;23.10;;;3.70;;
34982;SDS011;21187;50.976;13.720;2023-04-25T16:37:59;23.88;;;6.95;;
34982;SDS011;21187;50.976;13.720;2023-04-25T16:43:01;11.20;;;2.58;;
34982;SDS011;21187;50.976;13.720;2023-04-25T16:48:03;7.78;;;2.17;;
34982;SDS011;21187;50.976;13.720;2023-04-25T16:53:05;13.25;;;2.55;;
34982;SDS011;21187;50.976;13.720;2023-04-25T16:58:07;22.33;;;3.13;;
34982;SDS011;21187;50.976;13.720;2023-04-25T17:03:11;6.80;;;1.92;;
34982;SDS011;21187;50.976;13.720;2023-04-25T17:08:13;10.25;;;2.25;;
34982;SDS011;21187;50.976;13.720;2023-04-25T17:13:15;12.75;;;1.55;;
34982;SDS011;21187;50.976;13.720;2023-04-25T17:18:17;6.53;;;1.90;;
34982;SDS011;21187;50.976;13.720;2023-04-25T17:23:19;9.30;;;1.90;;
34982;SDS011;21187;50.976;13.720;2023-04-25T17:28:21;5.18;;;1.70;;
34982;SDS011;21187;50.976;13.720;2023-04-25T17:33:23;10.57;;;2.13;;
34982;SDS011;21187;50.976;13.720;2023-04-25T17:38:27;9.27;;;2.35;;
34982;SDS011;21187;50.976;13.720;2023-04-25T17:43:29;8.23;;;2.28;;
34982;SDS011;21187;50.976;13.720;2023-04-25T17:48:31;12.15;;;3.38;;
34982;SDS011;21187;50.976;13.720;2023-04-25T17:53:34;9.85;;;1.88;;
34982;SDS011;21187;50.976;13.720;2023-04-25T17:58:36;8.93;;;1.90;;
34982;SDS011;21187;50.976;13.720;2023-04-25T18:03:38;10.02;;;2.25;;
34982;SDS011;21187;50.976;13.720;2023-04-25T18:08:40;5.30;;;2.05;;
34982;SDS011;21187;50.976;13.720;2023-04-25T18:13:42;10.27;;;2.30;;
34982;SDS011;21187;50.976;13.720;2023-04-25T18:18:45;8.73;;;2.00;;
34982;SDS011;21187;50.976;13.720;2023-04-25T18:23:54;6.57;;;2.15;;
34982;SDS011;21187;50.976;13.720;2023-04-25T18:28:55;7.82;;;2.05;;
34982;SDS011;21187;50.976;13.720;2023-04-25T18:33:57;8.50;;;1.98;;
34982;SDS011;21187;50.976;13.720;2023-04-25T18:38:59;10.25;;;3.53;;
34982;SDS011;21187;50.976;13.720;2023-04-25T18:44:22;7.68;;;2.20;;
34982;SDS011;21187;50.976;13.720;2023-04-25T18:49:23;7.82;;;2.25;;
34982;SDS011;21187;50.976;13.720;2023-04-25T18:54:25;8.18;;;3.75;;
34982;SDS011;21187;50.976;13.720;2023-04-25T18:59:27;8.68;;;2.80;;
34982;SDS011;21187;50.976;13.720;2023-04-25T19:04:29;11.65;;;2.30;;
34982;SDS011;21187;50.976;13.720;2023-04-25T19:09:32;11.13;;;2.25;;
34982;SDS011;21187;50.976;13.720;2023-04-25T19:14:33;8.25;;;2.75;;
34982;SDS011;21187;50.976;13.720;2023-04-25T19:19:36;6.47;;;2.15;;
34982;SDS011;21187;50.976;13.720;2023-04-25T19:24:38;8.57;;;2.38;;
34982;SDS011;21187;50.976;13.720;2023-04-25T19:29:41;8.65;;;2.42;;
34982;SDS011;21187;50.976;13.720;2023-04-25T19:34:48;7.38;;;2.40;;
34982;SDS011;21187;50.976;13.720;2023-04-25T19:39:50;12.23;;;2.58;;
34982;SDS011;21187;50.976;13.720;2023-04-25T19:44:52;16.98;;;2.90;;
34982;SDS011;21187;50.976;13.720;2023-04-25T19:49:54;7.07;;;2.97;;
34982;SDS011;21187;50.976;13.720;2023-04-25T19:54:56;10.40;;;2.67;;
34982;SDS011;21187;50.976;13.720;2023-04-25T20:00:04;9.07;;;2.00;;
34982;SDS011;21187;50.976;13.720;2023-04-25T20:05:15;11.93;;;2.08;;
34982;SDS011;21187;50.976;13.720;2023-04-25T20:10:18;4.53;;;2.10;;
34982;SDS011;21187;50.976;13.720;2023-04-25T20:15:20;13.73;;;2.67;;
34982;SDS011;21187;50.976;13.720;2023-04-25T20:20:22;12.93;;;2.72;;
34982;SDS011;21187;50.976;13.720;2023-04-25T20:25:24;6.38;;;2.08;;
34982;SDS011;21187;50.976;13.720;2023-04-25T20:30:26;8.70;;;1.90;;
34982;SDS011;21187;50.976;13.720;2023-04-25T20:35:29;5.65;;;2.10;;
34982;SDS011;21187;50.976;13.720;2023-04-25T20:40:31;3.63;;;1.73;;
34982;SDS011;21187;50.976;13.720;2023-04-25T20:45:33;9.20;;;1.80;;
34982;SDS011;21187;50.976;13.720;2023-04-25T20:50:36;8.68;;;2.25;;
34982;SDS011;21187;50.976;13.720;2023-04-25T20:55:38;11.45;;;1.75;;
34982;SDS011;21187;50.976;13.720;2023-04-25T21:00:42;11.38;;;1.92;;
34982;SDS011;21187;50.976;13.720;2023-04-25T21:05:44;12.05;;;2.88;;
34982;SDS011;21187;50.976;13.720;2023-04-25T21:10:47;10.18;;;2.45;;
34982;SDS011;21187;50.976;13.720;2023-04-25T21:15:51;6.22;;;2.53;;
34982;SDS011;21187;50.976;13.720;2023-04-25T21:20:53;6.07;;;1.90;;
34982;SDS011;21187;50.976;13.720;2023-04-25T21:25:55;10.60;;;2.40;;
34982;SDS011;21187;50.976;13.720;2023-04-25T21:30:57;3.90;;;1.80;;
34982;SDS011;21187;50.976;13.720;2023-04-25T21:35:59;12.30;;;1.95;;
34982;SDS011;21187;50.976;13.720;2023-04-25T21:41:01;5.88;;;1.95;;
34982;SDS011;21187;50.976;13.720;2023-04-25T21:46:03;4.43;;;2.00;;
34982;SDS011;21187;50.976;13.720;2023-04-25T21:51:08;10.65;;;1.98;;
34982;SDS011;21187;50.976;13.720;2023-04-25T21:56:10;7.25;;;1.60;;
34982;SDS011;21187;50.976;13.720;2023-04-25T22:01:12;10.43;;;1.85;;
34982;SDS011;21187;50.976;13.720;2023-04-25T22:06:16;3.35;;;1.30;;
34982;SDS011;21187;50.976;13.720;2023-04-25T22:11:18;4.63;;;1.70;;
34982;SDS011;21187;50.976;13.720;2023-04-25T22:16:19;5.65;;;1.50;;
34982;SDS011;21187;50.976;13.720;2023-04-25T22:21:21;6.28;;;1.52;;
34982;SDS011;21187;50.976;13.720;2023-04-25T22:26:24;6.63;;;2.20;;
34982;SDS011;21187;50.976;13.720;2023-04-25T22:31:26;3.35;;;1.63;;
34982;SDS011;21187;50.976;13.720;2023-04-25T22:36:29;6.47;;;1.50;;
34982;SDS011;21187;50.976;13.720;2023-04-25T22:41:31;8.90;;;2.13;;
34982;SDS011;21187;50.976;13.720;2023-04-25T22:46:33;5.95;;;1.98;;
34982;SDS011;21187;50.976;13.720;2023-04-25T22:51:34;9.25;;;2.13;;
34982;SDS011;21187;50.976;13.720;2023-04-25T22:56:37;4.95;;;2.13;;
34982;SDS011;21187;50.976;13.720;2023-04-25T23:01:39;12.75;;;2.28;;
34982;SDS011;21187;50.976;13.720;2023-04-25T23:06:41;9.18;;;2.05;;
34982;SDS011;21187;50.976;13.720;2023-04-25T23:11:43;8.65;;;1.73;;
34982;SDS011;21187;50.976;13.720;2023-04-25T23:16:45;8.30;;;2.53;;
34982;SDS011;21187;50.976;13.720;2023-04-25T23:21:47;10.10;;;2.25;;
34982;SDS011;21187;50.976;13.720;2023-04-25T23:26:49;9.10;;;2.30;;
34982;SDS011;21187;50.976;13.720;2023-04-25T23:31:51;10.93;;;2.20;;
34982;SDS011;21187;50.976;13.720;2023-04-25T23:36:52;7.07;;;1.90;;
34982;SDS011;21187;50.976;13.720;2023-04-25T23:41:54;6.60;;;2.45;;
34982;SDS011;21187;50.976;13.720;2023-04-25T23:46:57;4.93;;;2.08;;
34982;SDS011;21187;50.976;13.720;2023-04-25T23:51:58;12.20;;;2.25;;
34982;SDS011;21187;50.976;13.720;2023-04-25T23:57:01;6.13;;;2.20;;
